Time;durP1;ratioP1;P1;durP2;ratioP2;P2;SDS_P1;SDS_P2;PMS_P1;PMS_P2;Temp;Humidity;BMP_temperature;BMP_pressure;BME280_temperature;BME280_humidity;BME280_pressure;Samples;Min_cycle;Max_cycle;Signal;HPM_P1;HPM_P2
2023/02/05 00:00:19;;;;;;;18.58;9.82;;;;;;;7.35;66.77;102343.56;5054382;28;20049;-63
2023/02/05 00:02:47;;;;;;;20.25;11.23;;;;;;;7.37;66.24;102328.41;5051102;28;20049;-63
2023/02/05 00:05:15;;;;;;;18.35;9.50;;;;;;;7.38;66.53;102334.78;5054639;28;20052;-62
2023/02/05 00:07:43;;;;;;;13.88;8.55;;;;;;;7.42;67.23;102335.97;5054371;28;20045;-62
2023/02/05 00:10:10;;;;;;;19.17;9.35;;;;;;;7.43;66.90;102337.63;5042813;28;20058;-62
2023/02/05 00:12:38;;;;;;;15.35;8.70;;;;;;;7.40;65.62;102332.59;5034586;28;20057;-63
2023/02/05 00:15:06;;;;;;;16.85;9.55;;;;;;;7.39;66.51;102326.22;5034028;28;20049;-60
2023/02/05 00:17:35;;;;;;;16.25;8.77;;;;;;;7.38;66.25;102323.69;5034461;28;20052;-63
2023/02/05 00:20:07;;;;;;;18.90;9.13;;;;;;;7.35;66.80;102316.72;5034669;28;20060;-63
2023/02/05 00:22:36;;;;;;;16.55;9.38;;;;;;;7.35;65.74;102311.19;5034114;28;20064;-63
2023/02/05 00:25:04;;;;;;;20.00;10.30;;;;;;;7.36;66.25;102314.78;5037796;28;20054;-63
2023/02/05 00:27:32;;;;;;;19.98;10.95;;;;;;;7.36;65.94;102301.75;5034394;28;20049;-63
2023/02/05 00:30:00;;;;;;;16.38;9.65;;;;;;;7.38;66.06;102295.97;5034619;28;20065;-63
2023/02/05 00:32:28;;;;;;;20.90;10.20;;;;;;;7.34;66.28;102292.84;5053246;28;20060;-63
2023/02/05 00:34:55;;;;;;;19.00;8.73;;;;;;;7.37;66.37;102288.72;5054039;28;20060;-63
2023/02/05 00:37:23;;;;;;;19.38;8.73;;;;;;;7.43;66.38;102288.59;5053882;28;20056;-62
2023/02/05 00:39:51;;;;;;;22.08;9.77;;;;;;;7.47;67.38;102283.38;5047619;28;20052;-63
2023/02/05 00:42:19;;;;;;;18.13;9.18;;;;;;;7.50;66.01;102282.91;5053451;28;20052;-63
2023/02/05 00:44:46;;;;;;;17.88;9.52;;;;;;;7.51;66.98;102267.94;5053850;28;20053;-63
2023/02/05 00:47:13;;;;;;;16.75;9.68;;;;;;;7.54;66.28;102284.09;5053396;28;20156;-62
2023/02/05 00:49:41;;;;;;;15.40;9.23;;;;;;;7.56;66.10;102276.34;5052941;28;20061;-63
2023/02/05 00:52:08;;;;;;;15.57;10.02;;;;;;;7.57;65.90;102266.94;5051657;28;20056;-60
2023/02/05 00:54:35;;;;;;;18.25;9.05;;;;;;;7.50;66.00;102266.25;5047382;28;20041;-63
2023/02/05 00:57:04;;;;;;;19.67;10.45;;;;;;;7.55;65.85;102260.78;5053221;28;20056;-62
2023/02/05 00:59:31;;;;;;;21.30;10.52;;;;;;;7.50;66.58;102252.41;5053179;28;20053;-63
2023/02/05 01:01:59;;;;;;;21.73;11.63;;;;;;;7.50;65.60;102252.41;5053316;28;20052;-62
2023/02/05 01:04:26;;;;;;;16.58;9.98;;;;;;;7.50;66.57;102255.16;5053216;28;20501;-63
2023/02/05 01:06:54;;;;;;;19.08;10.02;;;;;;;7.58;65.88;102251.13;5053526;28;20083;-62
2023/02/05 01:09:22;;;;;;;16.30;10.13;;;;;;;7.60;66.43;102247.03;5050289;28;20049;-62
2023/02/05 01:11:49;;;;;;;18.48;10.05;;;;;;;7.61;66.17;102245.94;5053614;28;20382;-62
2023/02/05 01:14:18;;;;;;;19.20;10.20;;;;;;;7.64;66.29;102242.66;5053221;28;20381;-63
2023/02/05 01:16:46;;;;;;;18.63;9.50;;;;;;;7.67;66.38;102239.38;5053555;28;20060;-62
2023/02/05 01:19:13;;;;;;;20.90;9.73;;;;;;;7.67;65.94;102239.38;5052740;28;21033;-62
2023/02/05 01:21:40;;;;;;;19.85;9.27;;;;;;;7.63;66.05;102235.41;5051932;28;20049;-61
2023/02/05 01:24:08;;;;;;;16.20;9.23;;;;;;;7.60;66.27;102235.06;5050937;28;20053;-62
2023/02/05 01:26:35;;;;;;;16.80;8.77;;;;;;;7.62;66.51;102230.97;5053115;28;20048;-62
2023/02/05 01:29:02;;;;;;;21.33;9.43;;;;;;;7.66;66.92;102222.97;5052980;28;20056;-63
2023/02/05 01:31:32;;;;;;;13.13;8.52;;;;;;;7.69;67.39;102219.72;5052818;28;20061;-63
2023/02/05 01:33:59;;;;;;;17.70;9.10;;;;;;;7.74;66.52;102217.00;5052850;28;20490;-62
2023/02/05 01:36:29;;;;;;;19.38;8.88;;;;;;;7.79;66.49;102199.59;5050456;28;20810;-62
2023/02/05 01:38:57;;;;;;;17.63;9.25;;;;;;;7.75;66.34;102193.75;5052958;28;20059;-62
2023/02/05 01:41:24;;;;;;;19.65;9.00;;;;;;;7.74;67.00;102208.69;5052386;28;20052;-63
2023/02/05 01:44:11;;;;;;;19.50;8.93;;;;;;;7.84;65.82;102221.91;5052402;28;20057;-62
2023/02/05 01:46:41;;;;;;;14.73;8.70;;;;;;;7.86;66.68;102234.41;5052805;28;20509;-62
2023/02/05 01:49:10;;;;;;;;;;;;;;;7.74;67.06;102225.34;5045137;28;20057;-62
2023/02/05 01:51:38;;;;;;;20.00;9.35;;;;;;;7.76;65.51;102216.78;5046032;28;19920;-63
2023/02/05 01:54:07;;;;;;;16.98;9.60;;;;;;;7.76;65.71;102225.09;5052536;28;20048;-62
2023/02/05 01:56:38;;;;;;;14.23;9.43;;;;;;;7.86;66.16;102225.25;5052266;28;20060;-63
2023/02/05 01:59:10;;;;;;;20.27;9.75;;;;;;;7.85;65.76;102218.88;5052415;28;20053;-63
2023/02/05 02:01:40;;;;;;;15.98;9.18;;;;;;;7.83;65.43;102220.19;5052237;28;20055;-63
2023/02/05 02:04:09;;;;;;;21.35;11.98;;;;;;;7.84;66.46;102216.34;5051125;28;20053;-62
2023/02/05 02:06:38;;;;;;;21.13;10.00;;;;;;;7.79;66.56;102213.47;5049243;28;20064;-62
2023/02/05 02:09:06;;;;;;;20.67;10.90;;;;;;;7.72;67.24;102208.94;5052522;28;20056;-63
2023/02/05 02:11:38;;;;;;;17.20;9.43;;;;;;;7.84;66.20;102195.00;5051893;28;20057;-62
2023/02/05 02:14:08;;;;;;;20.95;9.52;;;;;;;7.89;66.09;102194.22;5050334;28;20494;-62
2023/02/05 02:16:38;;;;;;;17.70;9.95;;;;;;;7.95;66.93;102184.88;5051966;28;20067;-63
2023/02/05 02:19:16;;;;;;;20.92;9.80;;;;;;;7.99;66.25;102174.97;5049310;28;20052;-63
2023/02/05 02:22:11;;;;;;;22.73;11.05;;;;;;;7.96;65.74;102182.94;5052234;28;20059;-62
2023/02/05 02:25:18;;;;;;;22.60;11.07;;;;;;;7.95;66.78;102195.97;5032932;28;20068;-63
2023/02/05 02:27:49;;;;;;;21.60;11.02;;;;;;;7.97;67.16;102193.78;5014798;28;20466;-63
2023/02/05 02:30:24;;;;;;;19.60;10.60;;;;;;;8.01;67.33;102200.53;5032297;28;20066;-62
2023/02/05 02:33:02;;;;;;;21.58;10.18;;;;;;;8.00;67.45;102198.84;5034572;28;20052;-62
2023/02/05 02:35:42;;;;;;;23.40;11.25;;;;;;;8.06;65.85;102202.53;5032507;28;20133;-63
2023/02/05 02:38:15;;;;;;;20.17;10.30;;;;;;;8.08;67.07;102200.34;5032064;28;20478;-63
2023/02/05 02:40:49;;;;;;;19.20;9.88;;;;;;;8.09;66.19;102197.31;5032598;28;20064;-63
2023/02/05 02:43:24;;;;;;;18.02;9.88;;;;;;;8.09;66.29;102196.47;5032181;28;20053;-61
2023/02/05 02:45:59;;;;;;;16.48;9.75;;;;;;;8.08;66.45;102194.78;5032590;28;20057;-63
2023/02/05 02:48:30;;;;;;;20.63;11.07;;;;;;;8.09;65.61;102202.84;5043373;28;20064;-63
2023/02/05 02:51:00;;;;;;;20.20;10.52;;;;;;;8.11;66.23;102209.00;5031648;28;20494;-63
2023/02/05 02:53:35;;;;;;;20.92;10.73;;;;;;;8.11;66.18;102200.66;5031602;28;20050;-63
2023/02/05 02:56:04;;;;;;;20.75;11.23;;;;;;;8.17;65.86;102193.25;5051959;28;20056;-62
2023/02/05 02:58:39;;;;;;;18.48;10.25;;;;;;;8.17;65.51;102181.31;5051867;28;20049;-63
2023/02/05 03:01:09;;;;;;;19.13;11.02;;;;;;;8.19;66.56;102181.88;5052307;28;20405;-63
2023/02/05 03:03:37;;;;;;;;;;;;;;;8.15;67.09;102184.34;5050059;28;20057;-63
2023/02/05 03:06:09;;;;;;;25.05;12.00;;;;;;;8.15;66.40;102189.91;5031754;28;19944;-63
2023/02/05 03:08:45;;;;;;;23.17;12.10;;;;;;;8.20;66.28;102195.50;5031848;28;20060;-62
2023/02/05 03:11:14;;;;;;;19.00;11.40;;;;;;;8.23;66.68;102202.47;5032409;28;20057;-62
2023/02/05 03:13:44;;;;;;;17.80;10.65;;;;;;;8.26;66.23;102190.88;5036075;28;20061;-63
2023/02/05 03:16:13;;;;;;;15.80;9.40;;;;;;;8.24;65.73;102182.81;5036009;28;20056;-62
2023/02/05 03:18:41;;;;;;;20.08;11.68;;;;;;;8.20;65.82;102180.81;5049407;28;20053;-63
2023/02/05 03:21:12;;;;;;;20.38;11.23;;;;;;;8.28;66.35;102161.75;5055998;28;20057;-63
2023/02/05 03:23:43;;;;;;;19.08;11.50;;;;;;;8.31;66.55;102158.47;5054905;28;20060;-63
2023/02/05 03:26:27;;;;;;;18.65;10.82;;;;;;;8.30;65.44;102136.53;5054820;28;20386;-63
2023/02/05 03:28:57;;;;;;;24.20;12.95;;;;;;;8.12;66.92;102144.06;5055423;28;20053;-62
2023/02/05 03:31:33;;;;;;;22.48;11.75;;;;;;;8.09;66.47;102152.06;5054998;28;20508;-63
2023/02/05 03:34:12;;;;;;;26.38;13.55;;;;;;;8.07;66.88;102137.63;5038153;28;20057;-62
2023/02/05 03:36:52;;;;;;;30.60;13.75;;;;;;;8.12;66.81;102151.53;5035072;28;20406;-63
2023/02/05 03:39:28;;;;;;;22.65;12.52;;;;;;;8.10;66.69;102139.84;5035044;28;20053;-62
2023/02/05 03:42:10;;;;;;;26.17;15.65;;;;;;;8.20;67.51;102141.94;5035760;28;20064;-63
2023/02/05 03:45:04;;;;;;;29.05;13.98;;;;;;;8.21;67.28;102138.91;5053571;28;20068;-63
2023/02/05 03:47:38;;;;;;;27.88;14.85;;;;;;;8.26;67.35;102136.19;5053815;28;20061;-60
2023/02/05 03:50:18;;;;;;;24.38;13.43;;;;;;;8.33;66.46;102144.31;5055042;28;20056;-60
2023/02/05 03:52:51;;;;;;;25.75;13.60;;;;;;;8.40;67.51;102130.25;5054952;28;20061;-60
2023/02/05 03:55:22;;;;;;;30.70;14.70;;;;;;;8.43;66.68;102132.56;5054825;28;20049;-61
2023/02/05 03:57:56;;;;;;;25.73;14.23;;;;;;;8.46;66.45;102124.56;5055083;28;20470;-60
2023/02/05 04:00:26;;;;;;;27.73;14.32;;;;;;;8.46;65.46;102129.25;5051274;28;20048;-60
2023/02/05 04:02:53;;;;;;;;;;;;;;;8.46;66.09;102132.03;5054368;28;20060;-60
2023/02/05 04:05:21;;;;;;;29.00;13.07;;;;;;;8.39;66.19;102121.09;5053604;28;19921;-61
2023/02/05 04:07:49;;;;;;;27.77;13.35;;;;;;;8.22;68.10;102118.38;5054857;28;20437;-60
2023/02/05 04:10:17;;;;;;;28.65;14.48;;;;;;;8.31;67.63;102099.31;5054381;28;20056;-60
2023/02/05 04:12:45;;;;;;;31.67;13.90;;;;;;;8.30;66.68;102103.22;5054357;28;20064;-60
2023/02/05 04:15:12;;;;;;;31.90;15.38;;;;;;;8.23;68.29;102110.88;5036766;28;20049;-61
2023/02/05 04:17:41;;;;;;;28.73;15.25;;;;;;;8.14;69.00;102121.59;5053557;28;20387;-61
2023/02/05 04:20:09;;;;;;;31.38;14.68;;;;;;;8.25;68.45;102133.66;5053730;28;20049;-60
2023/02/05 04:22:37;;;;;;;30.35;15.55;;;;;;;8.27;68.07;102137.88;5053091;28;20060;-60
2023/02/05 04:25:05;;;;;;;26.05;14.52;;;;;;;8.35;68.14;102144.91;5054168;28;20052;-60
2023/02/05 04:27:33;;;;;;;27.42;13.73;;;;;;;8.43;67.78;102140.88;5054304;28;20053;-60
2023/02/05 04:30:00;;;;;;;29.58;13.77;;;;;;;8.50;67.52;102147.06;5054090;28;20071;-60
2023/02/05 04:32:30;;;;;;;36.30;17.08;;;;;;;8.47;66.88;102140.09;5052544;28;20489;-60
2023/02/05 04:34:58;;;;;;;26.45;13.43;;;;;;;8.53;68.23;102155.72;5054150;28;20052;-60
2023/02/05 04:37:26;;;;;;;28.08;13.65;;;;;;;8.59;68.22;102151.09;5054107;28;20413;-60
2023/02/05 04:39:53;;;;;;;31.48;14.70;;;;;;;8.64;67.05;102161.41;5054319;28;20053;-60
2023/02/05 04:42:20;;;;;;;33.75;14.93;;;;;;;8.66;66.98;102156.44;5053928;28;20417;-60
2023/02/05 04:44:48;;;;;;;24.85;14.10;;;;;;;8.67;67.27;102155.31;5054035;28;20049;-60
2023/02/05 04:47:15;;;;;;;29.55;13.57;;;;;;;8.68;67.44;102149.50;5051079;28;20394;-60
2023/02/05 04:49:42;;;;;;;34.13;14.98;;;;;;;8.66;67.89;102150.88;5045854;28;20052;-61
2023/02/05 04:52:11;;;;;;;26.73;14.07;;;;;;;8.60;66.72;102151.91;5053581;28;20387;-60
2023/02/05 04:54:38;;;;;;;29.90;14.18;;;;;;;8.61;68.19;102145.25;5053863;28;20060;-60
2023/02/05 04:57:06;;;;;;;29.65;15.43;;;;;;;8.63;67.96;102141.13;5053800;28;20504;-60
2023/02/05 04:59:33;;;;;;;32.35;16.38;;;;;;;8.61;66.91;102134.13;5053673;28;20064;-60
2023/02/05 05:02:01;;;;;;;27.70;14.68;;;;;;;8.62;68.44;102138.59;5052225;28;20049;-60
2023/02/05 05:04:28;;;;;;;30.80;14.93;;;;;;;8.67;67.29;102136.72;5053074;28;20395;-60
2023/02/05 05:06:55;;;;;;;30.27;16.38;;;;;;;8.74;68.42;102130.97;5052633;28;20048;-60
2023/02/05 05:09:24;;;;;;;23.50;13.95;;;;;;;8.67;68.33;102135.88;5053466;28;20049;-61
2023/02/05 05:11:52;;;;;;;30.23;14.70;;;;;;;8.69;68.46;102128.97;5053296;28;20060;-60
2023/02/05 05:14:20;;;;;;;30.60;16.27;;;;;;;8.77;68.32;102126.81;5053289;28;20048;-60
2023/02/05 05:16:49;;;;;;;35.65;16.98;;;;;;;8.82;68.55;102130.50;5051289;28;20413;-60
2023/02/05 05:19:16;;;;;;;36.97;18.33;;;;;;;8.83;68.61;102134.94;5053305;28;20053;-60
2023/02/05 05:21:44;;;;;;;32.78;16.38;;;;;;;8.92;68.83;102155.63;5053023;28;20064;-60
2023/02/05 05:24:11;;;;;;;32.97;15.95;;;;;;;8.96;68.68;102149.53;5053181;28;20060;-60
2023/02/05 05:26:42;;;;;;;29.52;15.30;;;;;;;8.95;69.33;102154.25;5053197;28;20060;-60
2023/02/05 05:29:11;;;;;;;35.60;15.93;;;;;;;9.00;68.70;102150.69;5051304;28;20064;-60
2023/02/05 05:31:39;;;;;;;25.48;14.27;;;;;;;9.03;69.20;102134.31;5052792;28;20053;-60
2023/02/05 05:34:06;;;;;;;31.35;15.27;;;;;;;9.02;69.32;102131.78;5052973;28;20061;-60
2023/02/05 05:36:34;;;;;;;31.65;16.63;;;;;;;9.00;68.86;102111.78;5053118;28;20478;-60
2023/02/05 05:44:29;;;;;;;37.20;17.23;;;;;;;8.74;70.44;102112.34;5056170;28;20060;-61
2023/02/05 05:46:56;;;;;;;32.00;15.88;;;;;;;8.67;70.06;102114.50;5052978;28;20075;-60
2023/02/05 05:49:24;;;;;;;35.50;16.38;;;;;;;8.64;70.63;102109.47;5052477;28;20067;-60
2023/02/05 05:51:51;;;;;;;33.90;15.52;;;;;;;8.63;69.78;102102.25;5052522;28;20052;-60
2023/02/05 05:54:21;;;;;;;27.77;15.13;;;;;;;8.67;70.03;102111.72;5052677;28;20068;-60
2023/02/05 05:56:50;;;;;;;28.35;14.60;;;;;;;8.62;71.40;102111.66;5052378;28;20049;-60
2023/02/05 05:59:21;;;;;;;27.15;14.45;;;;;;;8.62;70.71;102122.78;5044241;28;20060;-60
2023/02/05 06:01:48;;;;;;;26.42;14.25;;;;;;;8.69;70.30;102117.88;5051995;28;20045;-60
2023/02/05 06:04:16;;;;;;;34.83;17.30;;;;;;;8.63;70.58;102115.28;5052478;28;20052;-60
2023/02/05 06:06:43;;;;;;;34.20;15.43;;;;;;;8.55;72.57;102111.03;5051979;28;20135;-60
2023/02/05 06:09:10;;;;;;;29.75;15.00;;;;;;;8.63;71.39;102107.78;5052272;28;20072;-60
2023/02/05 06:11:38;;;;;;;29.98;15.98;;;;;;;8.67;70.83;102106.19;5052083;28;20063;-60
2023/02/05 06:14:07;;;;;;;25.65;13.80;;;;;;;8.65;71.57;102110.28;5050649;28;20056;-60
2023/02/05 06:16:34;;;;;;;27.42;14.80;;;;;;;8.72;71.56;102110.94;5052123;28;20422;-60
2023/02/05 06:19:01;;;;;;;29.88;15.88;;;;;;;8.73;71.59;102113.47;5052334;28;20405;-59
2023/02/05 06:21:29;;;;;;;20.95;12.77;;;;;;;8.81;72.12;102117.69;5051725;28;20067;-61
2023/02/05 06:23:58;;;;;;;27.58;14.20;;;;;;;8.77;71.52;102119.31;5033017;28;20417;-60
2023/02/05 06:26:25;;;;;;;27.17;14.48;;;;;;;8.85;72.35;102106.91;5032384;28;20050;-60
2023/02/05 06:28:55;;;;;;;25.58;15.13;;;;;;;8.90;72.27;102107.81;5046134;28;20485;-60
2023/02/05 06:31:25;;;;;;;25.75;15.00;;;;;;;8.84;71.52;102102.44;5052391;28;20401;-60
2023/02/05 06:33:54;;;;;;;29.33;13.80;;;;;;;8.91;70.68;102103.91;5052466;28;20060;-60
2023/02/05 06:36:22;;;;;;;28.58;14.60;;;;;;;8.95;71.88;102098.66;5052130;28;20060;-60
2023/02/05 06:38:52;;;;;;;31.05;15.25;;;;;;;8.93;71.18;102106.44;5051659;28;20528;-60
2023/02/05 06:41:19;;;;;;;27.08;15.73;;;;;;;9.01;71.32;102099.53;5051942;28;20048;-60
2023/02/05 06:43:47;;;;;;;30.85;17.20;;;;;;;9.06;71.50;102099.59;5050789;28;20049;-60
2023/02/05 06:46:18;;;;;;;26.35;14.75;;;;;;;9.06;70.89;102099.59;5052651;28;20045;-60
2023/02/05 06:48:46;;;;;;;23.40;13.75;;;;;;;9.08;70.62;102095.44;5055746;28;20398;-60
2023/02/05 06:51:14;;;;;;;23.23;14.17;;;;;;;9.04;71.66;102093.47;5056231;28;20485;-60
2023/02/05 06:53:42;;;;;;;32.55;17.30;;;;;;;9.00;71.10;102092.31;5055824;28;20049;-60
2023/02/05 06:56:10;;;;;;;29.73;18.10;;;;;;;9.03;71.98;102078.72;5056581;28;20045;-61
2023/02/05 06:58:39;;;;;;;30.90;18.60;;;;;;;9.03;71.63;102084.28;5038142;28;20058;-60
2023/02/05 07:01:06;;;;;;;32.60;18.70;;;;;;;9.04;72.13;102079.56;5036374;28;20049;-62
2023/02/05 07:03:36;;;;;;;31.48;18.55;;;;;;;8.92;72.68;102076.94;5035636;28;20476;-63
2023/02/05 07:06:08;;;;;;;32.53;19.13;;;;;;;9.01;72.20;102078.16;5036376;28;20057;-63
2023/02/05 07:08:36;;;;;;;34.97;18.73;;;;;;;8.99;71.75;102079.50;5035158;28;20064;-61
2023/02/05 07:11:03;;;;;;;32.10;17.85;;;;;;;8.88;72.77;102073.03;5036208;28;20401;-62
2023/02/05 07:13:38;;;;;;;34.15;19.67;;;;;;;8.91;73.08;102076.13;5045161;28;20060;-65
2023/02/05 07:16:08;;;;;;;34.47;19.30;;;;;;;9.00;72.76;102078.41;5050653;28;20048;-62
2023/02/05 07:18:36;;;;;;;31.52;18.95;;;;;;;9.01;73.52;102074.53;5054085;28;20056;-63
2023/02/05 07:21:07;;;;;;;35.25;19.92;;;;;;;8.89;74.30;102078.31;5053986;28;20044;-60
2023/02/05 07:23:36;;;;;;;35.33;20.88;;;;;;;8.82;74.85;102061.03;5053770;28;20450;-59
2023/02/05 07:26:07;;;;;;;40.85;23.00;;;;;;;8.81;77.34;102073.25;5053752;28;20497;-61
2023/02/05 07:28:39;;;;;;;47.10;24.20;;;;;;;8.64;78.55;102065.00;5044400;28;20056;-60
2023/02/05 07:31:09;;;;;;;53.53;24.83;;;;;;;8.58;80.58;102068.00;5037960;28;20049;-60
2023/02/05 07:33:37;;;;;;;52.08;26.40;;;;;;;8.66;81.07;102056.44;5038121;28;20494;-60
2023/02/05 07:36:09;;;;;;;54.58;27.83;;;;;;;8.69;81.33;102053.97;5049304;28;20413;-60
2023/02/05 07:38:38;;;;;;;58.70;28.52;;;;;;;8.75;80.82;102049.28;5054503;28;20052;-60
2023/02/05 07:41:06;;;;;;;59.40;30.17;;;;;;;8.81;80.44;102050.19;5052083;28;20053;-61
2023/02/05 07:43:48;;;;;;;59.47;29.67;;;;;;;8.89;79.50;102050.53;5052042;28;20057;-64
2023/02/05 07:46:17;;;;;;;48.38;28.13;;;;;;;8.94;78.60;102050.59;5048166;28;20059;-60
2023/02/05 07:48:45;;;;;;;44.38;24.33;;;;;;;9.01;79.18;102049.50;5053831;28;20052;-60
2023/02/05 07:51:21;;;;;;;48.25;25.67;;;;;;;9.01;79.04;102043.94;5035549;28;20056;-60
2023/02/05 07:53:48;;;;;;;62.50;29.15;;;;;;;9.06;77.13;102044.00;5034857;28;20054;-60
2023/02/05 07:56:24;;;;;;;48.42;25.88;;;;;;;9.14;77.32;102047.13;5046319;28;20057;-60
2023/02/05 07:58:51;;;;;;;42.83;25.17;;;;;;;9.18;78.39;102047.44;5045336;28;20061;-60
2023/02/05 08:01:24;;;;;;;52.15;26.77;;;;;;;9.24;77.29;102057.50;5034836;28;20041;-60
2023/02/05 08:03:55;;;;;;;57.53;31.20;;;;;;;9.32;77.12;102058.94;5047380;28;20056;-60
2023/02/05 08:06:27;;;;;;;58.67;26.92;;;;;;;9.34;77.63;102059.50;5053638;28;20049;-60
2023/02/05 08:08:55;;;;;;;55.53;27.13;;;;;;;9.38;77.44;102062.59;5045515;28;20080;-63
2023/02/05 08:11:23;;;;;;;48.35;24.67;;;;;;;9.39;77.29;102058.72;5049467;28;20049;-61
2023/02/05 08:13:56;;;;;;;45.20;23.23;;;;;;;9.44;77.57;102062.34;5041264;28;20057;-61
2023/02/05 08:16:27;;;;;;;54.60;26.52;;;;;;;9.50;76.28;102063.22;5053524;28;20053;-60
2023/02/05 08:18:56;;;;;;;41.60;24.77;;;;;;;9.53;75.94;102079.38;5050667;28;20053;-61
2023/02/05 08:21:31;;;;;;;35.72;21.35;;;;;;;9.55;75.46;102066.03;5040605;28;20397;-61
2023/02/05 08:24:01;;;;;;;23.85;15.18;;;;;;;9.50;75.06;102058.50;5045376;28;20045;-61
2023/02/05 08:26:29;;;;;;;19.92;13.80;;;;;;;9.47;74.00;102064.63;5042866;28;20417;-59
2023/02/05 08:28:58;;;;;;;20.00;13.30;;;;;;;9.49;72.91;102058.75;5044864;28;20045;-60
2023/02/05 08:31:29;;;;;;;22.30;14.43;;;;;;;9.48;73.35;102055.16;5042746;28;20040;-60
2023/02/05 08:33:58;;;;;;;18.73;13.50;;;;;;;9.47;73.36;102066.53;5044674;28;20068;-62
2023/02/05 08:36:31;;;;;;;23.70;15.07;;;;;;;9.48;73.31;102051.53;5048201;28;20498;-63
2023/02/05 08:39:02;;;;;;;18.83;13.20;;;;;;;9.44;73.08;102055.97;5044269;28;20045;-62
2023/02/05 08:41:30;;;;;;;16.70;12.30;;;;;;;9.45;71.51;102063.19;5043709;28;20049;-63
2023/02/05 08:43:58;;;;;;;16.13;12.32;;;;;;;9.44;72.19;102050.41;5033714;28;20053;-63
2023/02/05 08:46:30;;;;;;;17.73;11.63;;;;;;;9.43;72.61;102044.00;5037712;28;20057;-63
2023/02/05 08:48:58;;;;;;;17.83;11.38;;;;;;;9.43;71.58;102043.16;5038438;28;20417;-62
2023/02/05 08:51:30;;;;;;;15.02;10.77;;;;;;;9.39;72.32;102034.53;5042251;28;20053;-62
2023/02/05 08:53:58;;;;;;;18.08;12.68;;;;;;;9.41;72.52;102037.00;5048753;28;20065;-62
2023/02/05 08:56:26;;;;;;;20.75;13.40;;;;;;;9.38;72.26;102032.00;5050252;28;20379;-63
2023/02/05 08:58:56;;;;;;;15.65;11.85;;;;;;;9.41;72.40;102037.00;5049236;28;20045;-62
2023/02/05 09:01:29;;;;;;;19.00;13.07;;;;;;;9.42;72.68;102035.91;5049475;28;20056;-62
2023/02/05 09:03:57;;;;;;;18.23;13.13;;;;;;;9.47;71.99;102027.59;5051324;28;20057;-62
2023/02/05 09:06:31;;;;;;;19.15;13.48;;;;;;;9.46;72.91;102032.31;5047414;28;20053;-63
2023/02/05 09:09:17;;;;;;;17.20;13.32;;;;;;;9.47;73.06;102022.91;5045556;28;20056;-62
2023/02/05 09:12:01;;;;;;;19.17;13.75;;;;;;;9.50;71.64;102025.13;5044908;28;20041;-62
2023/02/05 09:14:36;;;;;;;17.13;11.95;;;;;;;9.45;72.21;102029.81;5043721;28;20054;-66
2023/02/05 09:17:04;;;;;;;15.32;11.38;;;;;;;9.38;71.37;102032.00;5033241;28;20393;-63
2023/02/05 09:19:40;;;;;;;12.90;9.60;;;;;;;9.36;71.46;102040.59;5040460;28;20048;-62
2023/02/05 09:22:13;;;;;;;14.07;10.25;;;;;;;9.34;70.45;102043.69;5039918;28;20512;-61
2023/02/05 09:24:43;;;;;;;12.63;9.48;;;;;;;9.33;70.42;102047.53;5048351;28;20049;-61
2023/02/05 09:27:14;;;;;;;9.65;7.57;;;;;;;9.27;71.23;102054.16;5049560;28;21734;-62
2023/02/05 09:29:42;;;;;;;8.30;6.70;;;;;;;9.23;71.33;102058.59;5045611;28;20064;-62
2023/02/05 09:32:10;;;;;;;7.60;4.93;;;;;;;9.21;70.64;102058.03;5035521;28;20060;-62
2023/02/05 09:34:48;;;;;;;7.97;5.30;;;;;;;9.20;71.16;102067.47;5037314;28;20045;-62
2023/02/05 09:37:18;;;;;;;7.03;4.85;;;;;;;9.28;71.17;102067.00;5040736;28;20060;-62
2023/02/05 09:39:45;;;;;;;;;;;;;;;9.26;69.11;102071.97;5046246;28;20064;-62
2023/02/05 09:42:28;;;;;;;4.47;2.65;;;;;;;9.23;69.03;102072.50;5038405;28;19924;-62
2023/02/05 09:45:09;;;;;;;4.13;2.40;;;;;;;9.26;69.59;102071.97;5032240;28;20056;-63
2023/02/05 09:47:46;;;;;;;4.75;2.67;;;;;;;9.32;69.61;102068.13;5035266;28;20053;-62
2023/02/05 09:50:24;;;;;;;4.22;2.53;;;;;;;9.38;69.81;102074.53;5045717;28;20053;-62
2023/02/05 09:53:04;;;;;;;4.15;2.22;;;;;;;9.42;69.85;102072.06;5044545;28;20061;-62
2023/02/05 09:55:40;;;;;;;3.83;2.20;;;;;;;9.42;68.90;102081.25;5040178;28;20046;-61
2023/02/05 09:58:14;;;;;;;4.43;2.65;;;;;;;9.34;69.16;102090.09;5048904;28;20053;-63
2023/02/05 10:00:47;;;;;;;3.72;2.17;;;;;;;9.34;69.21;102093.72;5047279;28;20064;-61
2023/02/05 10:03:25;;;;;;;3.67;2.10;;;;;;;9.34;69.58;102104.84;5033679;28;20497;-62
2023/02/05 10:06:17;;;;;;;4.40;2.30;;;;;;;9.31;69.08;102088.69;5037828;28;20056;-62
2023/02/05 10:08:57;;;;;;;3.95;1.80;;;;;;;9.35;68.70;102094.56;5038963;28;20057;-62
2023/02/05 10:11:37;;;;;;;3.30;1.80;;;;;;;9.31;68.33;102097.03;5032763;28;20049;-62
2023/02/05 10:14:13;;;;;;;2.97;1.58;;;;;;;9.28;69.14;102100.34;5042569;28;20158;-63
2023/02/05 10:17:14;;;;;;;4.78;2.78;;;;;;;9.31;69.54;102096.19;5045162;28;20053;-62
2023/02/05 10:20:02;;;;;;;4.00;1.85;;;;;;;9.18;68.73;102103.03;5037697;28;20048;-62
2023/02/05 10:22:42;;;;;;;2.80;1.63;;;;;;;9.26;69.59;102099.78;5036033;28;20060;-63
2023/02/05 10:28:54;;;;;;;2.80;1.52;;;;;;;9.33;69.53;102100.38;5012502;28;20049;-62
2023/02/05 10:31:37;;;;;;;2.67;1.52;;;;;;;9.38;69.08;102091.22;5032862;28;20608;-63
2023/02/05 10:34:19;;;;;;;2.47;1.60;;;;;;;9.48;68.61;102096.03;5049681;28;20059;-62
2023/02/05 10:37:01;;;;;;;3.30;2.40;;;;;;;9.53;68.98;102099.72;5038638;28;20414;-62
2023/02/05 10:39:47;;;;;;;2.38;1.60;;;;;;;9.61;69.12;102105.88;5035554;28;20413;-64
2023/02/05 10:42:26;;;;;;;4.10;2.58;;;;;;;9.64;69.06;102106.19;5040930;28;20053;-62
2023/02/05 10:45:01;;;;;;;;;;;;;;;9.63;68.70;102092.53;5046242;28;20056;-62
2023/02/05 10:47:53;;;;;;;3.45;1.45;;;;;;;9.67;69.67;102097.28;5047145;28;19935;-60
2023/02/05 10:50:31;;;;;;;2.20;1.20;;;;;;;9.70;70.04;102102.31;5032403;28;20045;-63
2023/02/05 10:53:01;;;;;;;2.10;1.20;;;;;;;9.68;69.53;102103.69;5046061;28;20530;-62
2023/02/05 10:55:32;;;;;;;2.00;1.40;;;;;;;9.78;69.54;102100.13;5036990;28;20119;-63
2023/02/05 10:58:02;;;;;;;2.55;1.60;;;;;;;9.79;69.74;102101.81;5041900;28;20045;-63
2023/02/05 11:00:31;;;;;;;2.67;1.50;;;;;;;9.81;70.33;102094.88;5045088;28;20057;-63
2023/02/05 11:03:04;;;;;;;3.53;1.50;;;;;;;9.85;70.55;102097.94;5040511;28;20041;-63
2023/02/05 11:05:37;;;;;;;2.42;1.30;;;;;;;9.94;70.19;102099.13;5045116;28;20072;-63
2023/02/05 11:08:48;;;;;;;2.95;1.80;;;;;;;9.97;69.43;102104.13;5037486;28;21110;-62
2023/02/05 11:11:39;;;;;;;2.72;1.67;;;;;;;9.98;69.21;102094.69;5037261;28;20049;-61
2023/02/05 11:17:23;;;;;;;2.92;1.40;;;;;;;10.04;69.74;102087.22;5020708;28;20062;-62
2023/02/05 11:19:55;;;;;;;3.95;1.05;;;;;;;10.06;69.88;102096.13;5050847;28;20049;-63
2023/02/05 11:22:30;;;;;;;3.08;1.33;;;;;;;10.04;69.88;102085.25;5041594;28;20422;-63
2023/02/05 11:25:15;;;;;;;2.28;0.90;;;;;;;10.05;68.91;102089.69;5045878;28;20072;-62
2023/02/05 11:27:56;;;;;;;3.35;1.90;;;;;;;10.09;69.81;102079.69;5043248;28;20045;-66
2023/02/05 11:30:26;;;;;;;4.68;1.20;;;;;;;10.06;68.85;102085.81;5041829;28;20045;-62
2023/02/05 11:33:04;;;;;;;1.50;1.00;;;;;;;10.04;69.27;102079.69;5037888;28;20056;-61
2023/02/05 11:35:38;;;;;;;2.15;1.00;;;;;;;10.10;68.91;102073.03;5034672;28;20064;-63
2023/02/05 11:38:12;;;;;;;3.03;1.10;;;;;;;10.14;69.73;102071.38;5035311;28;20057;-61
2023/02/05 11:40:40;;;;;;;1.52;0.93;;;;;;;10.17;69.42;102064.41;5047904;28;20049;-63
2023/02/05 11:43:25;;;;;;;1.73;0.95;;;;;;;10.15;68.78;102061.06;5054617;28;20045;-60
2023/02/05 11:45:57;;;;;;;2.88;0.95;;;;;;;10.09;69.39;102068.56;5054953;28;20057;-63
2023/02/05 11:48:45;;;;;;;3.15;0.90;;;;;;;10.07;69.55;102065.22;5054677;28;20052;-63
2023/02/05 11:51:17;;;;;;;1.30;0.90;;;;;;;10.00;69.81;102066.59;5041952;28;20140;-63
2023/02/05 11:57:16;;;;;;;3.15;1.20;;;;;;;9.87;70.26;102056.75;5028057;28;20053;-62